Spar Hydra — LAKL7 — position and weather

sailwx.info

Track history (hours):
 
Tides and Currents Weather Stations Pressure Air Temp Water Temp Dewpoint Dewpoint Depression Visibility Wind Speed Wind Dir Waves Ship Positions

Spar Hydra

Last reported at 2014-Jul-15 01:30 UTC. Time now 2014-Jul-25 06:47 UTC.
Position N 01°11' E 103°40'.
Warning: this ship's position is 10 days out of date.

Length 190 m; draft 9.8 m.

Type: Ship. MMSI: 259701000.

Date/timePositionNaut miles runAvg speedWind from/ knotsBaromVisibWave heightAir tempDewpointWater temp
2014-Jul-15 01:30N 01°11' E 103°40'8 8.8
2014-Jul-15 00:33N 01°11' E 103°48'8 7.9
2014-Jul-14 23:33N 01°14' E 103°55'6 5.9
2014-Jul-14 22:32N 01°18' E 104°00'0 0.0
2014-Jul-14 21:28N 01°18' E 104°00'0 0.0
2014-Jul-14 20:31N 01°18' E 104°00'0 0.0
2014-Jul-14 19:16N 01°18' E 104°00'0 0.1
2014-Jul-14 17:13N 01°18' E 104°00'0 0.0
2014-Jul-14 10:25N 01°18' E 104°00'0 0.1
2014-Jul-14 09:30N 01°18' E 104°00'3 3.3
2014-Jul-14 08:33N 01°16' E 103°58'7 5.6
2014-Jul-14 07:20N 01°16' E 104°05'  
Track history (hours):
 
Tides and Currents Weather Stations Pressure Air Temp Water Temp Dewpoint Dewpoint Depression Visibility Wind Speed Wind Dir Waves Ship Positions

Spar Hydra

Last reported at 2014-Jul-15 01:30 UTC. Time now 2014-Jul-25 06:47 UTC.
Position N 01°11' E 103°40'.
Warning: this ship's position is 10 days out of date.

Length 190 m; draft 9.8 m.

Type: Ship. MMSI: 259701000.

Date/timePositionNaut miles runAvg speedWind from/ knotsBaromVisibWave heightAir tempDewpointWater temp
2014-Jul-15 01:30N 01°11' E 103°40'8 8.8
2014-Jul-15 00:33N 01°11' E 103°48'8 7.9
2014-Jul-14 23:33N 01°14' E 103°55'6 5.9
2014-Jul-14 22:32N 01°18' E 104°00'0 0.0
2014-Jul-14 21:28N 01°18' E 104°00'0 0.0
2014-Jul-14 20:31N 01°18' E 104°00'0 0.0
2014-Jul-14 19:16N 01°18' E 104°00'0 0.1
2014-Jul-14 17:13N 01°18' E 104°00'0 0.0
2014-Jul-14 10:25N 01°18' E 104°00'0 0.1
2014-Jul-14 09:30N 01°18' E 104°00'3 3.3
2014-Jul-14 08:33N 01°16' E 103°58'7 5.6
2014-Jul-14 07:20N 01°16' E 104°05'  

Dump ship's entire track history